sensor_id;sensor_type;location;lat;lon;timestamp;temperature;humidity
19164;DHT22;9714;51.208;4.242;2022-10-31T00:00:45;14.50;99.90
19164;DHT22;9714;51.208;4.242;2022-10-31T00:03:12;14.50;99.90
19164;DHT22;9714;51.208;4.242;2022-10-31T00:05:42;14.60;99.90
19164;DHT22;9714;51.208;4.242;2022-10-31T00:08:09;14.50;99.90
19164;DHT22;9714;51.208;4.242;2022-10-31T00:10:38;14.40;99.90
19164;DHT22;9714;51.208;4.242;2022-10-31T00:13:05;14.30;99.90
19164;DHT22;9714;51.208;4.242;2022-10-31T00:15:32;14.20;99.90
19164;DHT22;9714;51.208;4.242;2022-10-31T00:17:59;14.20;99.90
19164;DHT22;9714;51.208;4.242;2022-10-31T00:20:26;14.30;99.90
19164;DHT22;9714;51.208;4.242;2022-10-31T00:22:57;14.30;99.90
19164;DHT22;9714;51.208;4.242;2022-10-31T00:25:24;14.20;99.90
19164;DHT22;9714;51.208;4.242;2022-10-31T00:27:52;14.20;99.90
19164;DHT22;9714;51.208;4.242;2022-10-31T00:30:18;14.10;99.90
19164;DHT22;9714;51.208;4.242;2022-10-31T00:32:45;14.10;99.90
19164;DHT22;9714;51.208;4.242;2022-10-31T00:35:12;14.20;99.90
19164;DHT22;9714;51.208;4.242;2022-10-31T00:37:39;14.10;99.90
19164;DHT22;9714;51.208;4.242;2022-10-31T00:40:09;14.20;99.90
19164;DHT22;9714;51.208;4.242;2022-10-31T00:42:36;14.20;99.90
19164;DHT22;9714;51.208;4.242;2022-10-31T00:45:03;14.10;99.90
19164;DHT22;9714;51.208;4.242;2022-10-31T00:47:30;14.10;99.90
19164;DHT22;9714;51.208;4.242;2022-10-31T00:49:58;14.10;99.90
19164;DHT22;9714;51.208;4.242;2022-10-31T00:52:25;14.10;99.90
19164;DHT22;9714;51.208;4.242;2022-10-31T00:54:52;13.90;99.90
19164;DHT22;9714;51.208;4.242;2022-10-31T00:57:20;14.00;99.90
19164;DHT22;9714;51.208;4.242;2022-10-31T00:59:47;13.90;99.90
19164;DHT22;9714;51.208;4.242;2022-10-31T01:02:14;13.90;99.90
19164;DHT22;9714;51.208;4.242;2022-10-31T01:04:41;13.90;99.90
19164;DHT22;9714;51.208;4.242;2022-10-31T01:07:08;13.90;99.90
19164;DHT22;9714;51.208;4.242;2022-10-31T01:09:36;13.80;99.90
19164;DHT22;9714;51.208;4.242;2022-10-31T01:12:04;13.80;99.90
19164;DHT22;9714;51.208;4.242;2022-10-31T01:14:32;13.80;99.90
19164;DHT22;9714;51.208;4.242;2022-10-31T01:16:59;13.80;99.90
19164;DHT22;9714;51.208;4.242;2022-10-31T01:19:26;13.70;99.90
19164;DHT22;9714;51.208;4.242;2022-10-31T01:21:54;13.60;99.90
19164;DHT22;9714;51.208;4.242;2022-10-31T01:24:21;13.60;99.90
19164;DHT22;9714;51.208;4.242;2022-10-31T01:26:48;13.60;99.90
19164;DHT22;9714;51.208;4.242;2022-10-31T01:29:16;13.60;99.90
19164;DHT22;9714;51.208;4.242;2022-10-31T01:31:44;13.60;99.90
19164;DHT22;9714;51.208;4.242;2022-10-31T01:34:14;13.60;99.90
19164;DHT22;9714;51.208;4.242;2022-10-31T01:36:41;13.50;99.90
19164;DHT22;9714;51.208;4.242;2022-10-31T01:39:11;13.40;99.90
19164;DHT22;9714;51.208;4.242;2022-10-31T01:41:40;13.40;99.90
19164;DHT22;9714;51.208;4.242;2022-10-31T01:47:15;13.40;99.90
19164;DHT22;9714;51.208;4.242;2022-10-31T01:49:44;13.30;99.90
19164;DHT22;9714;51.208;4.242;2022-10-31T01:52:16;13.30;99.90
19164;DHT22;9714;51.208;4.242;2022-10-31T01:54:47;13.20;99.90
19164;DHT22;9714;51.208;4.242;2022-10-31T01:57:17;13.10;99.90
19164;DHT22;9714;51.208;4.242;2022-10-31T01:59:48;13.10;99.90
19164;DHT22;9714;51.208;4.242;2022-10-31T02:02:19;13.10;99.90
19164;DHT22;9714;51.208;4.242;2022-10-31T02:04:46;13.10;99.90
19164;DHT22;9714;51.208;4.242;2022-10-31T02:07:20;13.10;99.90
19164;DHT22;9714;51.208;4.242;2022-10-31T02:09:50;13.10;99.90
19164;DHT22;9714;51.208;4.242;2022-10-31T02:12:18;13.20;99.90
19164;DHT22;9714;51.208;4.242;2022-10-31T02:14:46;13.20;99.90
19164;DHT22;9714;51.208;4.242;2022-10-31T02:17:13;13.10;99.90
19164;DHT22;9714;51.208;4.242;2022-10-31T02:19:48;13.00;99.90
19164;DHT22;9714;51.208;4.242;2022-10-31T02:22:22;13.00;99.90
19164;DHT22;9714;51.208;4.242;2022-10-31T02:25:12;12.90;99.90
19164;DHT22;9714;51.208;4.242;2022-10-31T02:28:01;12.90;99.90
19164;DHT22;9714;51.208;4.242;2022-10-31T02:30:39;12.90;99.90
19164;DHT22;9714;51.208;4.242;2022-10-31T02:33:18;12.80;99.90
19164;DHT22;9714;51.208;4.242;2022-10-31T02:35:56;13.00;99.90
19164;DHT22;9714;51.208;4.242;2022-10-31T02:38:36;13.10;99.90
19164;DHT22;9714;51.208;4.242;2022-10-31T02:41:12;13.10;99.90
19164;DHT22;9714;51.208;4.242;2022-10-31T02:43:49;13.10;99.90
19164;DHT22;9714;51.208;4.242;2022-10-31T02:46:24;13.00;99.90
19164;DHT22;9714;51.208;4.242;2022-10-31T02:48:57;13.00;99.90
19164;DHT22;9714;51.208;4.242;2022-10-31T02:51:27;13.10;99.90
19164;DHT22;9714;51.208;4.242;2022-10-31T02:53:54;12.90;99.90
19164;DHT22;9714;51.208;4.242;2022-10-31T02:56:21;12.70;99.90
19164;DHT22;9714;51.208;4.242;2022-10-31T02:58:50;12.70;99.90
19164;DHT22;9714;51.208;4.242;2022-10-31T03:04:51;12.80;99.90
19164;DHT22;9714;51.208;4.242;2022-10-31T03:07:23;12.80;99.90
19164;DHT22;9714;51.208;4.242;2022-10-31T03:10:03;12.80;99.90
19164;DHT22;9714;51.208;4.242;2022-10-31T03:12:38;12.80;99.90
19164;DHT22;9714;51.208;4.242;2022-10-31T03:15:12;12.70;99.90
19164;DHT22;9714;51.208;4.242;2022-10-31T03:17:50;12.60;99.90
19164;DHT22;9714;51.208;4.242;2022-10-31T03:20:28;12.60;99.90
19164;DHT22;9714;51.208;4.242;2022-10-31T03:22:58;12.70;99.90
19164;DHT22;9714;51.208;4.242;2022-10-31T03:25:27;12.70;99.90
19164;DHT22;9714;51.208;4.242;2022-10-31T03:27:58;12.70;99.90
19164;DHT22;9714;51.208;4.242;2022-10-31T03:30:27;12.70;99.90
19164;DHT22;9714;51.208;4.242;2022-10-31T03:32:56;12.60;99.90
19164;DHT22;9714;51.208;4.242;2022-10-31T03:35:27;12.60;99.90
19164;DHT22;9714;51.208;4.242;2022-10-31T03:37:56;12.60;99.90
19164;DHT22;9714;51.208;4.242;2022-10-31T03:40:27;12.50;99.90
19164;DHT22;9714;51.208;4.242;2022-10-31T03:42:58;12.50;99.90
19164;DHT22;9714;51.208;4.242;2022-10-31T03:45:29;12.50;99.90
19164;DHT22;9714;51.208;4.242;2022-10-31T03:47:58;12.50;99.90
19164;DHT22;9714;51.208;4.242;2022-10-31T03:50:45;12.40;99.90
19164;DHT22;9714;51.208;4.242;2022-10-31T03:53:20;12.50;99.90
19164;DHT22;9714;51.208;4.242;2022-10-31T03:55:51;12.50;99.90
19164;DHT22;9714;51.208;4.242;2022-10-31T03:58:21;12.40;99.90
19164;DHT22;9714;51.208;4.242;2022-10-31T04:00:51;12.50;99.90
19164;DHT22;9714;51.208;4.242;2022-10-31T04:03:23;12.60;99.90
19164;DHT22;9714;51.208;4.242;2022-10-31T04:05:54;12.60;99.90
19164;DHT22;9714;51.208;4.242;2022-10-31T04:08:28;12.50;99.90
19164;DHT22;9714;51.208;4.242;2022-10-31T04:10:58;12.50;99.90
19164;DHT22;9714;51.208;4.242;2022-10-31T04:13:29;12.40;99.90
19164;DHT22;9714;51.208;4.242;2022-10-31T04:15:56;12.40;99.90
19164;DHT22;9714;51.208;4.242;2022-10-31T04:18:25;12.40;99.90
19164;DHT22;9714;51.208;4.242;2022-10-31T04:21:01;12.40;99.90
19164;DHT22;9714;51.208;4.242;2022-10-31T04:23:30;12.30;99.90
19164;DHT22;9714;51.208;4.242;2022-10-31T04:25:57;12.30;99.90
19164;DHT22;9714;51.208;4.242;2022-10-31T04:28:24;12.10;99.90
19164;DHT22;9714;51.208;4.242;2022-10-31T04:30:51;12.10;99.90
19164;DHT22;9714;51.208;4.242;2022-10-31T04:33:18;12.00;99.90
19164;DHT22;9714;51.208;4.242;2022-10-31T04:35:45;12.10;99.90
19164;DHT22;9714;51.208;4.242;2022-10-31T04:38:15;12.00;99.90
19164;DHT22;9714;51.208;4.242;2022-10-31T04:40:42;12.10;99.90
19164;DHT22;9714;51.208;4.242;2022-10-31T04:43:09;12.00;99.90
19164;DHT22;9714;51.208;4.242;2022-10-31T04:45:36;12.00;99.90
19164;DHT22;9714;51.208;4.242;2022-10-31T04:48:03;12.00;99.90
19164;DHT22;9714;51.208;4.242;2022-10-31T04:50:30;12.00;99.90
19164;DHT22;9714;51.208;4.242;2022-10-31T04:52:57;12.20;99.90
19164;DHT22;9714;51.208;4.242;2022-10-31T04:55:25;12.30;99.90
19164;DHT22;9714;51.208;4.242;2022-10-31T04:57:52;12.40;99.90
19164;DHT22;9714;51.208;4.242;2022-10-31T05:00:21;12.20;99.90
19164;DHT22;9714;51.208;4.242;2022-10-31T05:02:49;12.00;99.90
19164;DHT22;9714;51.208;4.242;2022-10-31T05:05:18;11.90;99.90
19164;DHT22;9714;51.208;4.242;2022-10-31T05:07:46;11.90;99.90
19164;DHT22;9714;51.208;4.242;2022-10-31T05:10:15;12.20;99.90
19164;DHT22;9714;51.208;4.242;2022-10-31T05:12:47;12.20;99.90
19164;DHT22;9714;51.208;4.242;2022-10-31T05:15:16;12.20;99.90
19164;DHT22;9714;51.208;4.242;2022-10-31T05:17:43;12.10;99.90
19164;DHT22;9714;51.208;4.242;2022-10-31T05:20:10;12.00;99.90
19164;DHT22;9714;51.208;4.242;2022-10-31T05:22:42;12.00;99.90
19164;DHT22;9714;51.208;4.242;2022-10-31T05:25:09;12.00;99.90
19164;DHT22;9714;51.208;4.242;2022-10-31T05:27:39;11.90;99.90
19164;DHT22;9714;51.208;4.242;2022-10-31T05:30:08;12.10;99.90
19164;DHT22;9714;51.208;4.242;2022-10-31T05:32:39;12.00;99.90
19164;DHT22;9714;51.208;4.242;2022-10-31T05:35:06;12.00;99.90
19164;DHT22;9714;51.208;4.242;2022-10-31T05:37:34;12.00;99.90
19164;DHT22;9714;51.208;4.242;2022-10-31T05:40:02;12.00;99.90
19164;DHT22;9714;51.208;4.242;2022-10-31T05:42:29;12.10;99.90
19164;DHT22;9714;51.208;4.242;2022-10-31T05:44:56;12.10;99.90
19164;DHT22;9714;51.208;4.242;2022-10-31T05:47:24;12.10;99.90
19164;DHT22;9714;51.208;4.242;2022-10-31T05:49:51;12.10;99.90
19164;DHT22;9714;51.208;4.242;2022-10-31T05:52:19;12.10;99.90
19164;DHT22;9714;51.208;4.242;2022-10-31T05:54:47;12.10;99.90
19164;DHT22;9714;51.208;4.242;2022-10-31T05:57:15;12.10;99.90
19164;DHT22;9714;51.208;4.242;2022-10-31T05:59:42;12.00;99.90
19164;DHT22;9714;51.208;4.242;2022-10-31T06:02:08;11.90;99.90
19164;DHT22;9714;51.208;4.242;2022-10-31T06:04:37;11.90;99.90
19164;DHT22;9714;51.208;4.242;2022-10-31T06:07:04;11.90;99.90
19164;DHT22;9714;51.208;4.242;2022-10-31T06:09:31;12.00;99.90
19164;DHT22;9714;51.208;4.242;2022-10-31T06:11:57;11.90;99.90
19164;DHT22;9714;51.208;4.242;2022-10-31T06:14:26;11.90;99.90
19164;DHT22;9714;51.208;4.242;2022-10-31T06:16:54;11.90;99.90
19164;DHT22;9714;51.208;4.242;2022-10-31T06:19:21;11.80;99.90
19164;DHT22;9714;51.208;4.242;2022-10-31T06:21:49;11.80;99.90
19164;DHT22;9714;51.208;4.242;2022-10-31T06:24:17;11.80;99.90
19164;DHT22;9714;51.208;4.242;2022-10-31T06:26:44;11.80;99.90
19164;DHT22;9714;51.208;4.242;2022-10-31T06:29:11;12.00;99.90
19164;DHT22;9714;51.208;4.242;2022-10-31T06:31:38;12.10;99.90
19164;DHT22;9714;51.208;4.242;2022-10-31T06:34:06;12.10;99.90
19164;DHT22;9714;51.208;4.242;2022-10-31T06:36:33;12.10;99.90
19164;DHT22;9714;51.208;4.242;2022-10-31T06:39:02;12.10;99.90
19164;DHT22;9714;51.208;4.242;2022-10-31T06:41:29;12.20;99.90
19164;DHT22;9714;51.208;4.242;2022-10-31T06:43:56;12.20;99.90
19164;DHT22;9714;51.208;4.242;2022-10-31T06:46:23;12.20;99.90
19164;DHT22;9714;51.208;4.242;2022-10-31T06:48:51;12.30;99.90
19164;DHT22;9714;51.208;4.242;2022-10-31T06:51:19;12.40;99.90
19164;DHT22;9714;51.208;4.242;2022-10-31T06:53:46;12.50;99.90
19164;DHT22;9714;51.208;4.242;2022-10-31T06:56:15;12.50;99.90
19164;DHT22;9714;51.208;4.242;2022-10-31T06:58:42;12.40;99.90
19164;DHT22;9714;51.208;4.242;2022-10-31T07:01:09;12.40;99.90
19164;DHT22;9714;51.208;4.242;2022-10-31T07:03:36;12.40;99.90
19164;DHT22;9714;51.208;4.242;2022-10-31T07:06:04;12.40;99.90
19164;DHT22;9714;51.208;4.242;2022-10-31T07:08:31;12.50;99.90
19164;DHT22;9714;51.208;4.242;2022-10-31T07:10:58;12.60;99.90
19164;DHT22;9714;51.208;4.242;2022-10-31T07:13:27;12.80;99.90
19164;DHT22;9714;51.208;4.242;2022-10-31T07:15:59;12.80;99.90
19164;DHT22;9714;51.208;4.242;2022-10-31T07:18:26;12.90;99.90
19164;DHT22;9714;51.208;4.242;2022-10-31T07:20:53;13.00;99.90
19164;DHT22;9714;51.208;4.242;2022-10-31T07:23:21;12.90;99.90
19164;DHT22;9714;51.208;4.242;2022-10-31T07:25:54;12.70;99.90
19164;DHT22;9714;51.208;4.242;2022-10-31T07:28:22;12.70;99.90
19164;DHT22;9714;51.208;4.242;2022-10-31T07:30:51;12.50;99.90
19164;DHT22;9714;51.208;4.242;2022-10-31T07:33:18;12.60;99.90
19164;DHT22;9714;51.208;4.242;2022-10-31T07:35:46;12.80;99.90
19164;DHT22;9714;51.208;4.242;2022-10-31T07:38:14;12.80;99.90
19164;DHT22;9714;51.208;4.242;2022-10-31T07:40:42;12.90;99.90
19164;DHT22;9714;51.208;4.242;2022-10-31T07:43:11;13.00;99.90
19164;DHT22;9714;51.208;4.242;2022-10-31T07:45:38;13.10;99.90
19164;DHT22;9714;51.208;4.242;2022-10-31T07:48:07;13.10;99.90
19164;DHT22;9714;51.208;4.242;2022-10-31T07:50:34;13.30;99.90
19164;DHT22;9714;51.208;4.242;2022-10-31T07:53:02;13.30;99.90
19164;DHT22;9714;51.208;4.242;2022-10-31T07:55:29;13.40;99.90
19164;DHT22;9714;51.208;4.242;2022-10-31T07:57:57;13.50;99.90
19164;DHT22;9714;51.208;4.242;2022-10-31T08:00:26;13.60;99.90
19164;DHT22;9714;51.208;4.242;2022-10-31T08:02:57;13.70;99.90
19164;DHT22;9714;51.208;4.242;2022-10-31T08:05:26;13.90;99.90
19164;DHT22;9714;51.208;4.242;2022-10-31T08:07:53;13.90;99.90
19164;DHT22;9714;51.208;4.242;2022-10-31T08:10:20;14.00;99.90
19164;DHT22;9714;51.208;4.242;2022-10-31T08:12:47;14.40;99.90
19164;DHT22;9714;51.208;4.242;2022-10-31T08:15:21;14.30;99.90
19164;DHT22;9714;51.208;4.242;2022-10-31T08:17:47;14.20;99.90
19164;DHT22;9714;51.208;4.242;2022-10-31T08:20:15;14.10;99.90
19164;DHT22;9714;51.208;4.242;2022-10-31T08:22:43;14.40;99.90
19164;DHT22;9714;51.208;4.242;2022-10-31T08:25:10;14.30;99.90
19164;DHT22;9714;51.208;4.242;2022-10-31T08:27:37;14.30;99.90
19164;DHT22;9714;51.208;4.242;2022-10-31T08:30:04;14.30;99.90
19164;DHT22;9714;51.208;4.242;2022-10-31T08:32:34;14.30;99.90
19164;DHT22;9714;51.208;4.242;2022-10-31T08:35:00;14.30;99.90
19164;DHT22;9714;51.208;4.242;2022-10-31T08:37:27;14.50;99.90
19164;DHT22;9714;51.208;4.242;2022-10-31T08:39:56;14.50;99.90
19164;DHT22;9714;51.208;4.242;2022-10-31T08:42:23;14.50;99.90
19164;DHT22;9714;51.208;4.242;2022-10-31T08:44:49;14.60;99.90
19164;DHT22;9714;51.208;4.242;2022-10-31T08:47:16;14.70;99.90
19164;DHT22;9714;51.208;4.242;2022-10-31T08:49:43;15.10;99.90
19164;DHT22;9714;51.208;4.242;2022-10-31T08:52:10;14.90;99.90
19164;DHT22;9714;51.208;4.242;2022-10-31T08:54:38;15.00;99.90
19164;DHT22;9714;51.208;4.242;2022-10-31T08:57:06;14.90;99.90
19164;DHT22;9714;51.208;4.242;2022-10-31T08:59:33;14.90;99.90
19164;DHT22;9714;51.208;4.242;2022-10-31T09:02:00;14.80;99.90
19164;DHT22;9714;51.208;4.242;2022-10-31T09:04:27;14.80;99.90
19164;DHT22;9714;51.208;4.242;2022-10-31T09:06:54;14.60;99.90
19164;DHT22;9714;51.208;4.242;2022-10-31T09:09:21;14.70;99.90
19164;DHT22;9714;51.208;4.242;2022-10-31T09:11:48;14.60;99.90
19164;DHT22;9714;51.208;4.242;2022-10-31T09:14:16;14.70;99.90
19164;DHT22;9714;51.208;4.242;2022-10-31T09:16:43;14.80;99.90
19164;DHT22;9714;51.208;4.242;2022-10-31T09:19:10;15.10;99.90
19164;DHT22;9714;51.208;4.242;2022-10-31T09:21:37;15.10;99.90
19164;DHT22;9714;51.208;4.242;2022-10-31T09:24:05;15.20;99.90
19164;DHT22;9714;51.208;4.242;2022-10-31T09:26:33;15.20;99.90
19164;DHT22;9714;51.208;4.242;2022-10-31T09:29:00;15.50;99.90
19164;DHT22;9714;51.208;4.242;2022-10-31T09:31:29;15.60;99.90
19164;DHT22;9714;51.208;4.242;2022-10-31T09:33:55;15.60;99.90
19164;DHT22;9714;51.208;4.242;2022-10-31T09:36:22;15.90;99.90
19164;DHT22;9714;51.208;4.242;2022-10-31T09:38:51;16.00;99.90
19164;DHT22;9714;51.208;4.242;2022-10-31T09:41:23;16.00;99.90
19164;DHT22;9714;51.208;4.242;2022-10-31T09:43:56;15.70;99.90
19164;DHT22;9714;51.208;4.242;2022-10-31T09:46:29;15.40;99.90
19164;DHT22;9714;51.208;4.242;2022-10-31T09:49:16;15.40;99.90
19164;DHT22;9714;51.208;4.242;2022-10-31T09:51:53;15.60;99.90
19164;DHT22;9714;51.208;4.242;2022-10-31T09:54:27;15.50;99.90
19164;DHT22;9714;51.208;4.242;2022-10-31T09:56:56;15.40;99.90
19164;DHT22;9714;51.208;4.242;2022-10-31T09:59:29;15.30;99.90
19164;DHT22;9714;51.208;4.242;2022-10-31T10:02:00;15.10;99.90
19164;DHT22;9714;51.208;4.242;2022-10-31T10:04:37;15.00;99.90
19164;DHT22;9714;51.208;4.242;2022-10-31T10:07:13;15.10;99.90
19164;DHT22;9714;51.208;4.242;2022-10-31T10:09:40;15.10;99.90
19164;DHT22;9714;51.208;4.242;2022-10-31T10:12:16;15.10;99.90
19164;DHT22;9714;51.208;4.242;2022-10-31T10:14:57;15.10;99.90
19164;DHT22;9714;51.208;4.242;2022-10-31T10:17:37;15.10;99.90
19164;DHT22;9714;51.208;4.242;2022-10-31T10:20:23;14.90;99.90
19164;DHT22;9714;51.208;4.242;2022-10-31T10:23:02;15.10;99.90
19164;DHT22;9714;51.208;4.242;2022-10-31T10:25:37;15.10;99.90
19164;DHT22;9714;51.208;4.242;2022-10-31T10:28:12;15.20;99.90
19164;DHT22;9714;51.208;4.242;2022-10-31T10:30:43;15.40;99.90
19164;DHT22;9714;51.208;4.242;2022-10-31T10:33:16;15.50;99.90
19164;DHT22;9714;51.208;4.242;2022-10-31T10:35:47;15.60;99.90
19164;DHT22;9714;51.208;4.242;2022-10-31T10:38:22;16.00;99.90
19164;DHT22;9714;51.208;4.242;2022-10-31T10:40:52;16.00;99.90
19164;DHT22;9714;51.208;4.242;2022-10-31T10:43:23;16.00;99.90
19164;DHT22;9714;51.208;4.242;2022-10-31T10:46:00;16.30;99.90
19164;DHT22;9714;51.208;4.242;2022-10-31T10:48:52;16.40;99.90
19164;DHT22;9714;51.208;4.242;2022-10-31T10:51:23;16.90;99.90
19164;DHT22;9714;51.208;4.242;2022-10-31T10:54:04;17.20;99.90
19164;DHT22;9714;51.208;4.242;2022-10-31T10:56:52;17.70;99.90
19164;DHT22;9714;51.208;4.242;2022-10-31T10:59:23;17.90;99.90
19164;DHT22;9714;51.208;4.242;2022-10-31T11:01:51;18.30;99.90
19164;DHT22;9714;51.208;4.242;2022-10-31T11:04:28;18.30;99.90
19164;DHT22;9714;51.208;4.242;2022-10-31T11:07:04;18.40;99.90
19164;DHT22;9714;51.208;4.242;2022-10-31T11:09:33;18.60;99.90
19164;DHT22;9714;51.208;4.242;2022-10-31T11:12:07;18.30;99.90
19164;DHT22;9714;51.208;4.242;2022-10-31T11:14:42;18.60;99.90
19164;DHT22;9714;51.208;4.242;2022-10-31T11:17:17;18.50;99.90
19164;DHT22;9714;51.208;4.242;2022-10-31T11:19:45;18.20;99.90
19164;DHT22;9714;51.208;4.242;2022-10-31T11:22:16;18.00;99.90
19164;DHT22;9714;51.208;4.242;2022-10-31T11:24:43;17.80;99.90
19164;DHT22;9714;51.208;4.242;2022-10-31T11:27:16;17.70;99.90
19164;DHT22;9714;51.208;4.242;2022-10-31T11:29:46;17.90;99.90
19164;DHT22;9714;51.208;4.242;2022-10-31T11:32:19;17.90;99.90
19164;DHT22;9714;51.208;4.242;2022-10-31T11:34:51;17.70;99.90
19164;DHT22;9714;51.208;4.242;2022-10-31T11:37:21;17.90;99.90
19164;DHT22;9714;51.208;4.242;2022-10-31T11:39:53;17.90;99.90
19164;DHT22;9714;51.208;4.242;2022-10-31T11:42:22;17.90;99.90
19164;DHT22;9714;51.208;4.242;2022-10-31T11:44:53;17.80;99.90
19164;DHT22;9714;51.208;4.242;2022-10-31T11:47:25;17.40;99.90
19164;DHT22;9714;51.208;4.242;2022-10-31T11:49:55;17.20;99.90
19164;DHT22;9714;51.208;4.242;2022-10-31T11:52:25;17.20;99.90
19164;DHT22;9714;51.208;4.242;2022-10-31T11:54:55;17.20;99.90
19164;DHT22;9714;51.208;4.242;2022-10-31T11:57:27;17.40;99.90
19164;DHT22;9714;51.208;4.242;2022-10-31T11:59:56;17.40;99.90
19164;DHT22;9714;51.208;4.242;2022-10-31T12:02:25;17.20;99.90
19164;DHT22;9714;51.208;4.242;2022-10-31T12:05:02;17.10;99.90
19164;DHT22;9714;51.208;4.242;2022-10-31T12:07:31;17.30;99.90
19164;DHT22;9714;51.208;4.242;2022-10-31T12:09:58;17.40;99.90
19164;DHT22;9714;51.208;4.242;2022-10-31T12:12:40;17.30;99.90
19164;DHT22;9714;51.208;4.242;2022-10-31T12:15:37;17.50;99.90
19164;DHT22;9714;51.208;4.242;2022-10-31T12:18:28;17.60;99.90
19164;DHT22;9714;51.208;4.242;2022-10-31T12:21:10;17.90;99.90
19164;DHT22;9714;51.208;4.242;2022-10-31T12:23:47;18.10;99.90
19164;DHT22;9714;51.208;4.242;2022-10-31T12:26:25;18.00;99.90
19164;DHT22;9714;51.208;4.242;2022-10-31T12:29:03;18.00;99.90
19164;DHT22;9714;51.208;4.242;2022-10-31T12:31:41;17.90;99.90
19164;DHT22;9714;51.208;4.242;2022-10-31T12:37:15;18.30;99.90
19164;DHT22;9714;51.208;4.242;2022-10-31T12:39:57;18.40;99.90
19164;DHT22;9714;51.208;4.242;2022-10-31T12:42:41;18.40;99.90
19164;DHT22;9714;51.208;4.242;2022-10-31T12:45:34;18.40;99.90
19164;DHT22;9714;51.208;4.242;2022-10-31T12:48:14;18.50;99.90
19164;DHT22;9714;51.208;4.242;2022-10-31T12:51:00;18.40;99.90
19164;DHT22;9714;51.208;4.242;2022-10-31T12:53:42;18.40;99.90
19164;DHT22;9714;51.208;4.242;2022-10-31T12:56:25;18.10;99.90
19164;DHT22;9714;51.208;4.242;2022-10-31T12:58:56;18.20;99.90
19164;DHT22;9714;51.208;4.242;2022-10-31T13:01:30;18.20;99.90
19164;DHT22;9714;51.208;4.242;2022-10-31T13:04:01;18.20;99.90
19164;DHT22;9714;51.208;4.242;2022-10-31T13:06:33;18.30;99.90
19164;DHT22;9714;51.208;4.242;2022-10-31T13:09:10;18.40;99.90
19164;DHT22;9714;51.208;4.242;2022-10-31T13:11:41;18.60;99.90
19164;DHT22;9714;51.208;4.242;2022-10-31T13:14:13;18.60;99.90
19164;DHT22;9714;51.208;4.242;2022-10-31T13:16:44;18.80;99.90
19164;DHT22;9714;51.208;4.242;2022-10-31T13:19:16;18.80;99.90
19164;DHT22;9714;51.208;4.242;2022-10-31T13:21:51;18.90;99.90
19164;DHT22;9714;51.208;4.242;2022-10-31T13:24:25;18.80;99.90
19164;DHT22;9714;51.208;4.242;2022-10-31T13:26:57;18.90;99.90
19164;DHT22;9714;51.208;4.242;2022-10-31T13:29:28;19.00;99.90
19164;DHT22;9714;51.208;4.242;2022-10-31T13:31:57;19.00;99.90
19164;DHT22;9714;51.208;4.242;2022-10-31T13:34:27;19.00;99.90
19164;DHT22;9714;51.208;4.242;2022-10-31T13:37:03;19.20;99.90
19164;DHT22;9714;51.208;4.242;2022-10-31T13:39:44;19.20;99.90
19164;DHT22;9714;51.208;4.242;2022-10-31T13:42:17;19.30;99.90
19164;DHT22;9714;51.208;4.242;2022-10-31T13:44:45;19.60;99.90
19164;DHT22;9714;51.208;4.242;2022-10-31T13:47:24;20.10;99.90
19164;DHT22;9714;51.208;4.242;2022-10-31T13:49:51;20.50;99.90
19164;DHT22;9714;51.208;4.242;2022-10-31T13:52:29;20.60;99.90
19164;DHT22;9714;51.208;4.242;2022-10-31T13:54:58;20.20;99.90
19164;DHT22;9714;51.208;4.242;2022-10-31T13:57:35;20.50;99.90
19164;DHT22;9714;51.208;4.242;2022-10-31T14:00:06;21.40;99.90
19164;DHT22;9714;51.208;4.242;2022-10-31T14:02:46;22.40;99.90
19164;DHT22;9714;51.208;4.242;2022-10-31T14:05:23;22.90;99.90
19164;DHT22;9714;51.208;4.242;2022-10-31T14:07:53;23.30;99.90
19164;DHT22;9714;51.208;4.242;2022-10-31T14:10:25;24.00;99.90
19164;DHT22;9714;51.208;4.242;2022-10-31T14:12:54;24.00;99.90
19164;DHT22;9714;51.208;4.242;2022-10-31T14:15:30;23.50;99.90
19164;DHT22;9714;51.208;4.242;2022-10-31T14:17:58;23.50;99.90
19164;DHT22;9714;51.208;4.242;2022-10-31T14:20:34;22.80;99.90
19164;DHT22;9714;51.208;4.242;2022-10-31T14:23:12;22.40;99.90
19164;DHT22;9714;51.208;4.242;2022-10-31T14:25:40;22.30;99.90
19164;DHT22;9714;51.208;4.242;2022-10-31T14:28:20;21.50;99.90
19164;DHT22;9714;51.208;4.242;2022-10-31T14:30:53;21.10;99.90
19164;DHT22;9714;51.208;4.242;2022-10-31T14:33:20;21.00;99.90
19164;DHT22;9714;51.208;4.242;2022-10-31T14:35:53;21.70;99.90
19164;DHT22;9714;51.208;4.242;2022-10-31T14:38:41;22.40;99.90
19164;DHT22;9714;51.208;4.242;2022-10-31T14:41:37;22.90;99.90
19164;DHT22;9714;51.208;4.242;2022-10-31T14:47:31;23.30;99.90
19164;DHT22;9714;51.208;4.242;2022-10-31T14:50:20;22.70;99.90
19164;DHT22;9714;51.208;4.242;2022-10-31T14:52:51;21.90;99.90
19164;DHT22;9714;51.208;4.242;2022-10-31T14:55:19;21.60;99.90
19164;DHT22;9714;51.208;4.242;2022-10-31T14:57:52;21.60;99.90
19164;DHT22;9714;51.208;4.242;2022-10-31T15:00:22;21.20;99.90
19164;DHT22;9714;51.208;4.242;2022-10-31T15:02:58;20.60;99.90
19164;DHT22;9714;51.208;4.242;2022-10-31T15:05:30;20.40;99.90
19164;DHT22;9714;51.208;4.242;2022-10-31T15:07:58;20.10;99.90
19164;DHT22;9714;51.208;4.242;2022-10-31T15:10:28;20.00;99.90
19164;DHT22;9714;51.208;4.242;2022-10-31T15:13:10;19.80;99.90
19164;DHT22;9714;51.208;4.242;2022-10-31T15:15:48;19.80;99.90
19164;DHT22;9714;51.208;4.242;2022-10-31T15:18:23;19.40;99.90
19164;DHT22;9714;51.208;4.242;2022-10-31T15:20:53;19.30;99.90
19164;DHT22;9714;51.208;4.242;2022-10-31T15:23:23;19.20;99.90
19164;DHT22;9714;51.208;4.242;2022-10-31T15:25:58;19.20;99.90
19164;DHT22;9714;51.208;4.242;2022-10-31T15:28:28;19.20;99.90
19164;DHT22;9714;51.208;4.242;2022-10-31T15:30:58;19.10;99.90
19164;DHT22;9714;51.208;4.242;2022-10-31T15:33:28;19.10;99.90
19164;DHT22;9714;51.208;4.242;2022-10-31T15:35:56;19.00;99.90
19164;DHT22;9714;51.208;4.242;2022-10-31T15:38:24;18.90;99.90
19164;DHT22;9714;51.208;4.242;2022-10-31T15:40:55;18.90;99.90
19164;DHT22;9714;51.208;4.242;2022-10-31T15:43:23;18.80;99.90
19164;DHT22;9714;51.208;4.242;2022-10-31T15:45:51;18.70;99.90
19164;DHT22;9714;51.208;4.242;2022-10-31T15:48:22;18.60;99.90
19164;DHT22;9714;51.208;4.242;2022-10-31T15:50:53;18.60;99.90
19164;DHT22;9714;51.208;4.242;2022-10-31T15:53:23;18.80;99.90
19164;DHT22;9714;51.208;4.242;2022-10-31T15:55:54;18.80;99.90
19164;DHT22;9714;51.208;4.242;2022-10-31T15:58:21;18.80;99.90
19164;DHT22;9714;51.208;4.242;2022-10-31T16:01:01;18.70;99.90
19164;DHT22;9714;51.208;4.242;2022-10-31T16:03:30;18.60;99.90
19164;DHT22;9714;51.208;4.242;2022-10-31T16:05:59;18.50;99.90
19164;DHT22;9714;51.208;4.242;2022-10-31T16:08:32;18.50;99.90
19164;DHT22;9714;51.208;4.242;2022-10-31T16:11:17;18.40;99.90
19164;DHT22;9714;51.208;4.242;2022-10-31T16:13:54;18.30;99.90
19164;DHT22;9714;51.208;4.242;2022-10-31T16:16:23;18.30;99.90
19164;DHT22;9714;51.208;4.242;2022-10-31T16:18:52;18.30;99.90
19164;DHT22;9714;51.208;4.242;2022-10-31T16:21:25;18.40;99.90